aviador You're here:

KASD Decoded Metar

SLIDELL 22 in LA, USA
Report Time2017-12-15 22:53:00
UTC Time2017-12-15 23:42:02
Flight Rules vfr VFR
Wind360° at 03 kt
W.Decomp.*RWY 36: 3.0 kt HW 0.1 kt LCW
Visibility9999 m
Phenomena:N/A
Clouds:Scattered 110 Hf
Expected CloudBase > 2,400 ft AGL from Temp-Dew spread
CeilingNone
Temp08°C (ISA -7)
Dew Point02°C (66% RH)
AAT5.3°C
QNH1023 hPa
Density Alt-1,047 ft
Elevation30 ft
Report Wrong Elevation
Raw Report
KASD 152253Z AUTO 36003KT 10SM SCT110 08/02 A3020 RMK AO2 SLP227
T00830022=

Extra information for KASD:More info

Metar Taf Metar & Taf Last 4 Metars F.Rules Stats Wind Profile Meteogram Temp Stats Airport Information Weather charts Add Link Nearby VenuesMetar ALERT Operation Metar Decoded Social comments

AIRNAV info for KASD